createdAt,value
2023-03-24T00:01:52.013Z,100821.00
2023-03-24T00:04:22.607Z,100818.69
2023-03-24T00:06:53.166Z,100803.59
2023-03-24T00:09:24.726Z,100816.47
2023-03-24T00:11:53.978Z,100819.69
2023-03-24T00:14:27.601Z,100806.78
2023-03-24T00:16:59.408Z,100801.97
2023-03-24T00:19:28.742Z,100809.59
2023-03-24T00:22:01.715Z,100815.16
2023-03-24T00:24:32.073Z,100804.94
2023-03-24T00:27:02.249Z,100811.34
2023-03-24T00:29:31.770Z,100809.16
2023-03-24T00:32:02.068Z,100826.06
2023-03-24T00:34:31.281Z,100841.25
2023-03-24T00:37:00.462Z,100836.59
2023-03-24T00:39:30.420Z,100836.59
2023-03-24T00:42:00.550Z,100848.84
2023-03-24T00:44:33.790Z,100850.50
2023-03-24T00:48:03.576Z,100857.09
2023-03-24T00:50:37.480Z,100856.53
2023-03-24T00:53:13.189Z,100865.25
2023-03-24T00:56:17.496Z,100862.31
2023-03-24T00:59:03.992Z,100858.75
2023-03-24T01:01:38.122Z,100857.97
2023-03-24T01:08:30.441Z,100892.38
2023-03-24T01:11:11.455Z,100899.56
2023-03-24T01:13:41.975Z,100915.41
2023-03-24T01:16:14.423Z,100917.72
2023-03-24T01:18:43.658Z,100919.81
2023-03-24T01:21:15.272Z,100918.53
2023-03-24T01:23:44.366Z,100919.38
2023-03-24T01:26:17.017Z,100914.94
2023-03-24T01:28:46.520Z,100908.94
2023-03-24T01:31:16.122Z,100913.34
2023-03-24T01:33:45.383Z,100912.31
2023-03-24T01:36:39.982Z,100915.31
2023-03-24T01:39:09.745Z,100916.03
2023-03-24T01:41:42.509Z,100923.56
2023-03-24T01:44:30.997Z,100918.03
2023-03-24T01:47:12.911Z,100928.25
2023-03-24T01:49:52.439Z,100921.72
2023-03-24T01:52:34.132Z,100921.94
2023-03-24T01:55:13.620Z,100925.84
2023-03-24T01:57:53.562Z,100934.69
2023-03-24T02:00:27.655Z,100948.13
2023-03-24T02:03:42.794Z,100930.91
2023-03-24T02:06:13.509Z,100946.75
2023-03-24T02:08:59.104Z,100955.94
2023-03-24T02:11:33.993Z,100955.94
2023-03-24T02:14:08.189Z,100966.22
2023-03-24T02:16:58.901Z,100970.13
2023-03-24T02:19:39.680Z,100971.72
2023-03-24T02:22:16.159Z,100972.44
2023-03-24T02:25:12.726Z,100989.94
2023-03-24T02:28:24.132Z,100981.13
2023-03-24T02:31:12.193Z,100984.34
2023-03-24T02:34:22.999Z,100980.69
2023-03-24T02:37:03.696Z,100978.06
2023-03-24T02:40:23.952Z,100985.50
2023-03-24T02:43:19.471Z,100997.53
2023-03-24T02:46:16.532Z,101002.34
2023-03-24T02:48:57.495Z,101001.31
2023-03-24T02:51:59.145Z,101019.88
2023-03-24T02:54:37.650Z,101019.66
2023-03-24T02:57:34.785Z,101039.50
2023-03-24T03:00:50.197Z,101041.78
2023-03-24T03:04:03.059Z,101038.44
2023-03-24T03:06:43.464Z,101040.75
2023-03-24T03:09:18.952Z,101036.59
2023-03-24T03:11:56.213Z,101035.00
2023-03-24T03:14:30.834Z,101035.59
2023-03-24T03:17:17.100Z,101051.75
2023-03-24T03:19:57.147Z,101047.16
2023-03-24T03:23:04.890Z,101044.84
2023-03-24T03:25:48.486Z,101062.06
2023-03-24T03:28:46.202Z,101070.56
2023-03-24T03:31:50.657Z,101059.31
2023-03-24T03:35:01.768Z,101061.00
2023-03-24T03:37:37.806Z,101048.31
2023-03-24T03:40:16.106Z,101052.63
2023-03-24T03:42:49.958Z,101060.66
2023-03-24T03:45:19.835Z,101062.94
2023-03-24T03:47:49.581Z,101066.16
2023-03-24T03:50:18.938Z,101063.38
2023-03-24T03:52:47.975Z,101060.41
2023-03-24T03:55:18.004Z,101072.88
2023-03-24T03:57:48.360Z,101075.28
2023-03-24T04:00:31.176Z,101077.81
2023-03-24T04:03:35.303Z,101081.13
2023-03-24T04:06:18.630Z,101095.56
2023-03-24T04:13:53.226Z,101109.53
2023-03-24T04:16:56.074Z,101131.00
2023-03-24T04:20:06.664Z,101127.50
2023-03-24T04:27:01.726Z,101148.56
2023-03-24T04:29:47.592Z,101155.34
2023-03-24T04:33:05.527Z,101158.16
2023-03-24T04:36:20.998Z,101156.59
2023-03-24T04:39:46.586Z,101169.88
2023-03-24T04:42:46.613Z,101176.97
2023-03-24T04:45:19.428Z,101187.72
2023-03-24T04:48:06.707Z,101180.81
2023-03-24T04:50:46.757Z,101181.81
2023-03-24T04:53:21.725Z,101186.03
2023-03-24T04:55:51.166Z,101189.25
2023-03-24T04:58:54.738Z,101181.00
2023-03-24T05:01:33.959Z,101172.84
2023-03-24T05:04:26.661Z,101183.25
2023-03-24T05:06:57.427Z,101173.63
2023-03-24T05:09:30.260Z,101185.03
2023-03-24T05:12:01.887Z,101191.88
2023-03-24T05:14:38.721Z,101185.72
2023-03-24T05:17:09.315Z,101182.63
2023-03-24T05:19:39.412Z,101187.44
2023-03-24T05:22:09.443Z,101193.28
2023-03-24T05:24:43.710Z,101187.44
2023-03-24T05:27:13.796Z,101186.78
2023-03-24T05:29:43.795Z,101180.09
2023-03-24T05:32:35.788Z,101191.06
2023-03-24T05:35:06.076Z,101194.00
2023-03-24T05:37:36.946Z,101186.16
2023-03-24T05:40:07.933Z,101196.56
2023-03-24T05:42:53.104Z,101197.78
2023-03-24T05:45:29.206Z,101198.84
2023-03-24T05:48:10.371Z,101191.25
2023-03-24T05:51:29.396Z,101198.59
2023-03-24T05:54:08.497Z,101203.50
2023-03-24T05:56:41.978Z,101193.88
2023-03-24T05:59:12.845Z,101196.41
2023-03-24T06:01:51.063Z,101198.69
2023-03-24T06:04:32.499Z,101194.00
2023-03-24T06:07:12.608Z,101194.41
2023-03-24T06:09:48.196Z,101189.72
2023-03-24T06:12:17.851Z,101189.03
2023-03-24T06:14:54.525Z,101205.78
2023-03-24T06:17:25.531Z,101207.88
2023-03-24T06:20:05.287Z,101215.47
2023-03-24T06:23:00.210Z,101204.00
2023-03-24T06:25:37.322Z,101204.47
2023-03-24T06:28:26.933Z,101195.09
2023-03-24T06:30:59.964Z,101195.56
2023-03-24T06:33:36.413Z,101196.41
2023-03-24T06:36:08.337Z,101192.69
2023-03-24T06:38:42.667Z,101198.31
2023-03-24T06:41:14.488Z,101193.47
2023-03-24T06:43:43.712Z,101188.78
2023-03-24T06:46:13.302Z,101200.94
2023-03-24T06:48:45.850Z,101205.88
2023-03-24T06:51:14.786Z,101206.38
2023-03-24T06:53:46.466Z,101215.47
2023-03-24T06:56:18.485Z,101225.38
2023-03-24T06:58:53.283Z,101219.28
2023-03-24T07:01:28.832Z,101221.88
2023-03-24T07:04:18.875Z,101230.19
2023-03-24T07:07:27.905Z,101231.56
2023-03-24T07:09:57.493Z,101236.09
2023-03-24T07:12:26.945Z,101243.00
2023-03-24T07:14:56.900Z,101243.91
2023-03-24T07:17:25.891Z,101258.34
2023-03-24T07:20:11.300Z,101250.91
2023-03-24T07:22:43.634Z,101255.59
2023-03-24T07:25:35.673Z,101253.81
2023-03-24T07:28:14.807Z,101255.69
2023-03-24T07:30:44.101Z,101259.31
2023-03-24T07:33:14.033Z,101257.28
2023-03-24T07:35:46.962Z,101253.94
2023-03-24T07:38:16.486Z,101262.06
2023-03-24T07:40:47.733Z,101258.34
2023-03-24T07:43:17.436Z,101257.41
2023-03-24T07:46:04.364Z,101260.63
2023-03-24T07:48:35.177Z,101262.16
2023-03-24T07:51:04.330Z,101261.69
2023-03-24T07:53:49.444Z,101264.09
2023-03-24T07:56:28.224Z,101261.78
2023-03-24T07:58:59.795Z,101262.16
2023-03-24T08:01:54.438Z,101263.31
2023-03-24T08:04:37.073Z,101255.25
2023-03-24T08:07:26.075Z,101254.94
2023-03-24T08:09:55.476Z,101262.53
2023-03-24T08:12:24.474Z,101265.75
2023-03-24T08:14:54.298Z,101266.44
2023-03-24T08:17:23.379Z,101269.31
2023-03-24T08:19:59.488Z,101267.06
2023-03-24T08:22:29.956Z,101270.97
2023-03-24T08:24:59.092Z,101276.91
2023-03-24T08:27:30.168Z,101272.75
2023-03-24T08:29:59.313Z,101266.59
2023-03-24T08:32:28.232Z,101276.75
2023-03-24T08:34:59.152Z,101280.72
2023-03-24T08:37:28.155Z,101286.28
2023-03-24T08:39:59.485Z,101286.59
2023-03-24T08:42:28.419Z,101286.25
2023-03-24T08:44:57.609Z,101284.97
2023-03-24T08:47:33.455Z,101299.19
2023-03-24T08:50:02.439Z,101291.28
2023-03-24T08:52:31.574Z,101290.00
2023-03-24T08:55:00.473Z,101301.94
2023-03-24T08:57:29.708Z,101289.81
2023-03-24T08:59:58.815Z,101290.28
2023-03-24T09:02:28.537Z,101298.38
2023-03-24T09:05:01.064Z,101294.88
2023-03-24T09:07:33.064Z,101303.88
2023-03-24T09:10:02.462Z,101298.25
2023-03-24T09:12:31.460Z,101305.94
2023-03-24T09:15:03.059Z,101305.66
2023-03-24T09:17:36.023Z,101293.66
2023-03-24T09:20:12.452Z,101301.25
2023-03-24T09:22:44.057Z,101303.00
2023-03-24T09:25:17.618Z,101293.31
2023-03-24T09:27:47.553Z,101305.81
2023-03-24T09:30:19.358Z,101304.00
2023-03-24T09:32:56.322Z,101304.16
2023-03-24T09:35:28.016Z,101296.66
2023-03-24T09:37:57.376Z,101298.34
2023-03-24T09:40:32.100Z,101287.97
2023-03-24T09:43:10.408Z,101296.66
2023-03-24T09:46:05.223Z,101294.41
2023-03-24T09:49:00.544Z,101301.97
2023-03-24T09:51:45.607Z,101298.13
2023-03-24T09:54:21.122Z,101293.75
2023-03-24T09:56:52.044Z,101284.13
2023-03-24T09:59:35.756Z,101281.19
2023-03-24T10:02:13.577Z,101286.84
2023-03-24T10:04:43.440Z,101271.22
2023-03-24T10:07:35.867Z,101267.28
2023-03-24T10:10:05.306Z,101266.22
2023-03-24T10:12:49.385Z,101265.00
2023-03-24T10:15:37.281Z,101261.66
2023-03-24T10:18:19.494Z,101260.91
2023-03-24T10:21:08.756Z,101256.88
2023-03-24T10:23:52.558Z,101259.56
2023-03-24T10:26:32.530Z,101259.56
2023-03-24T10:29:18.586Z,101267.84
2023-03-24T10:32:00.585Z,101263.31
2023-03-24T10:34:33.831Z,101267.50
2023-03-24T10:37:06.116Z,101264.00
2023-03-24T10:39:44.134Z,101258.69
2023-03-24T10:42:22.613Z,101269.38
2023-03-24T10:44:55.913Z,101268.38
2023-03-24T10:47:32.847Z,101260.63
2023-03-24T10:50:12.764Z,101256.59
2023-03-24T10:52:49.526Z,101262.88
2023-03-24T10:55:21.419Z,101269.44
2023-03-24T10:57:57.717Z,101263.25
2023-03-24T11:00:33.438Z,101278.34
2023-03-24T11:03:09.228Z,101276.22
2023-03-24T11:05:40.918Z,101272.38
2023-03-24T11:08:19.313Z,101271.91
2023-03-24T11:10:48.277Z,101268.94
2023-03-24T11:13:23.950Z,101272.06
2023-03-24T11:16:14.841Z,101258.34
2023-03-24T11:18:58.192Z,101263.19
2023-03-24T11:21:30.984Z,101258.41
2023-03-24T11:24:08.349Z,101263.53
2023-03-24T11:26:40.349Z,101260.44
2023-03-24T11:29:29.903Z,101259.00
2023-03-24T11:32:17.496Z,101261.91
2023-03-24T11:34:56.115Z,101253.22
2023-03-24T11:37:38.306Z,101259.47
2023-03-24T11:40:13.771Z,101257.59
2023-03-24T11:42:54.300Z,101262.59
2023-03-24T11:45:40.161Z,101263.53
2023-03-24T11:48:32.412Z,101261.31
2023-03-24T11:51:04.499Z,101267.09
2023-03-24T11:53:49.177Z,101269.00
2023-03-24T11:56:47.338Z,101266.41
2023-03-24T11:59:35.712Z,101265.81
2023-03-24T12:02:24.023Z,101268.38
2023-03-24T12:05:14.338Z,101280.31
2023-03-24T12:07:57.496Z,101276.13
2023-03-24T12:10:51.533Z,101276.47
2023-03-24T12:13:32.674Z,101269.69
2023-03-24T12:16:14.590Z,101270.84
2023-03-24T12:18:54.637Z,101268.22
2023-03-24T12:21:38.059Z,101265.50
2023-03-24T12:24:39.336Z,101264.69
2023-03-24T12:27:25.247Z,101271.19
2023-03-24T12:30:36.347Z,101266.38
2023-03-24T12:33:26.072Z,101276.66
2023-03-24T12:36:33.395Z,101274.44
2023-03-24T12:39:16.333Z,101273.28
2023-03-24T12:42:14.778Z,101275.56
2023-03-24T12:45:16.377Z,101269.72
2023-03-24T12:48:13.310Z,101276.63
2023-03-24T12:50:57.265Z,101277.34
2023-03-24T12:53:42.440Z,101279.78
2023-03-24T12:56:24.272Z,101277.16
2023-03-24T12:59:24.724Z,101273.00
2023-03-24T13:02:05.275Z,101274.75
2023-03-24T13:04:36.524Z,101277.16
2023-03-24T13:07:15.709Z,101283.63
2023-03-24T13:10:02.996Z,101281.16
2023-03-24T13:13:00.858Z,101281.53
2023-03-24T13:15:47.853Z,101280.72
2023-03-24T13:18:28.644Z,101276.56
2023-03-24T13:21:12.314Z,101277.47
2023-03-24T13:23:57.460Z,101276.81
2023-03-24T13:26:35.952Z,101274.91
2023-03-24T13:29:04.940Z,101277.97
2023-03-24T13:32:11.224Z,101281.19
2023-03-24T13:35:10.950Z,101280.56
2023-03-24T13:37:49.507Z,101279.78
2023-03-24T13:40:41.324Z,101288.50
2023-03-24T13:43:26.221Z,101290.41
2023-03-24T13:46:08.934Z,101295.91
2023-03-24T13:48:46.162Z,101295.91
2023-03-24T13:51:21.945Z,101287.97
2023-03-24T13:54:02.684Z,101296.03
2023-03-24T13:56:43.666Z,101298.94
2023-03-24T13:59:40.415Z,101305.22
2023-03-24T14:02:24.345Z,101314.59
2023-03-24T14:05:01.713Z,101319.41
2023-03-24T14:07:45.351Z,101322.66
2023-03-24T14:10:21.763Z,101326.06
2023-03-24T14:12:59.538Z,101324.63
2023-03-24T14:15:28.713Z,101329.47
2023-03-24T14:18:18.938Z,101323.66
2023-03-24T14:21:09.914Z,101324.81
2023-03-24T14:23:49.563Z,101322.53
2023-03-24T14:26:21.630Z,101329.75
2023-03-24T14:28:54.020Z,101334.75
2023-03-24T14:31:41.116Z,101341.06
2023-03-24T14:34:21.232Z,101335.44
2023-03-24T14:37:08.488Z,101343.94
2023-03-24T14:39:42.381Z,101337.84
2023-03-24T14:42:33.897Z,101347.19
2023-03-24T14:45:27.259Z,101345.59
2023-03-24T14:48:03.634Z,101354.56
2023-03-24T14:50:33.757Z,101350.41
2023-03-24T14:53:07.330Z,101349.59
2023-03-24T14:55:39.429Z,101353.97
2023-03-24T14:58:23.248Z,101349.44
2023-03-24T15:01:07.044Z,101349.75
2023-03-24T15:03:51.048Z,101347.78
2023-03-24T15:06:25.095Z,101367.22
2023-03-24T15:09:08.541Z,101358.81
2023-03-24T15:11:41.544Z,101367.22
2023-03-24T15:14:26.520Z,101374.00
2023-03-24T15:17:10.101Z,101373.31
2023-03-24T15:19:43.354Z,101381.88
2023-03-24T15:22:15.011Z,101383.16
2023-03-24T15:24:45.659Z,101379.78
2023-03-24T15:27:25.605Z,101383.16
2023-03-24T15:29:58.437Z,101386.88
2023-03-24T15:32:32.683Z,101395.78
2023-03-24T15:35:06.688Z,101391.78
2023-03-24T15:37:50.039Z,101398.22
2023-03-24T15:40:28.565Z,101389.50
2023-03-24T15:43:00.606Z,101394.00
2023-03-24T15:45:32.408Z,101396.94
2023-03-24T15:48:14.048Z,101400.16
2023-03-24T15:51:06.462Z,101403.03
2023-03-24T15:53:40.217Z,101400.81
2023-03-24T15:56:21.800Z,101399.50
2023-03-24T15:59:08.920Z,101411.47
2023-03-24T16:01:40.282Z,101409.19
2023-03-24T16:04:17.372Z,101411.75
2023-03-24T16:06:54.901Z,101413.69
2023-03-24T16:09:28.151Z,101423.06
2023-03-24T16:11:57.654Z,101430.16
2023-03-24T16:14:29.458Z,101432.56
2023-03-24T16:17:04.595Z,101436.97
2023-03-24T16:19:36.822Z,101444.00
2023-03-24T16:22:12.639Z,101441.09
2023-03-24T16:24:41.811Z,101441.78
2023-03-24T16:27:20.247Z,101451.91
2023-03-24T16:29:50.428Z,101446.41
2023-03-24T16:32:24.303Z,101446.56
2023-03-24T16:34:56.617Z,101456.91
2023-03-24T16:37:25.699Z,101464.97
2023-03-24T16:39:55.050Z,101455.94
2023-03-24T16:42:27.763Z,101460.44
2023-03-24T16:45:00.197Z,101465.47
2023-03-24T16:47:29.272Z,101469.03
2023-03-24T16:49:58.203Z,101465.44
2023-03-24T16:52:27.115Z,101476.88
2023-03-24T16:54:56.026Z,101472.53
2023-03-24T16:57:28.355Z,101477.50
2023-03-24T16:59:57.341Z,101490.31
2023-03-24T17:02:26.621Z,101476.91
2023-03-24T17:04:55.788Z,101489.50
2023-03-24T17:07:24.842Z,101491.09
2023-03-24T17:09:53.926Z,101489.63
2023-03-24T17:12:23.237Z,101491.09
2023-03-24T17:14:52.113Z,101489.78
2023-03-24T17:17:21.085Z,101503.84
2023-03-24T17:19:50.048Z,101505.31
2023-03-24T17:22:22.964Z,101504.94
2023-03-24T17:25:01.184Z,101511.22
2023-03-24T17:27:30.284Z,101516.84
2023-03-24T17:29:59.383Z,101523.97
2023-03-24T17:32:34.359Z,101519.13
2023-03-24T17:35:04.638Z,101525.22
2023-03-24T17:37:34.880Z,101525.69
2023-03-24T17:40:11.228Z,101525.84
2023-03-24T17:42:42.906Z,101533.34
2023-03-24T17:45:16.183Z,101534.59
2023-03-24T17:47:46.405Z,101532.47
2023-03-24T17:50:15.828Z,101538.41
2023-03-24T17:52:47.451Z,101540.47
2023-03-24T17:55:18.214Z,101539.00
2023-03-24T18:01:07.716Z,101553.31
2023-03-24T18:03:47.384Z,101553.66
2023-03-24T18:06:26.752Z,101551.00
2023-03-24T18:09:02.023Z,101562.69
2023-03-24T18:11:31.883Z,101556.50
2023-03-24T18:14:01.438Z,101564.09
2023-03-24T18:16:36.156Z,101564.91
2023-03-24T18:19:20.215Z,101566.09
2023-03-24T18:21:52.038Z,101562.63
2023-03-24T18:24:22.375Z,101555.19
2023-03-24T18:27:02.144Z,101559.41
2023-03-24T18:29:36.638Z,101560.34
2023-03-24T18:32:13.982Z,101563.00
2023-03-24T18:34:48.552Z,101569.06
2023-03-24T18:37:18.069Z,101559.19
2023-03-24T18:39:55.814Z,101567.53
2023-03-24T18:42:24.820Z,101571.13
2023-03-24T18:44:53.710Z,101577.81
2023-03-24T18:47:23.428Z,101576.16
2023-03-24T18:49:52.347Z,101575.31
2023-03-24T18:52:21.439Z,101579.03
2023-03-24T18:54:50.689Z,101572.41
2023-03-24T18:57:21.018Z,101573.16
2023-03-24T18:59:50.625Z,101576.75
2023-03-24T19:02:22.301Z,101576.56
2023-03-24T19:04:51.389Z,101571.53
2023-03-24T19:07:25.370Z,101574.66
2023-03-24T19:09:55.552Z,101570.66
2023-03-24T19:12:24.634Z,101569.41
2023-03-24T19:14:54.931Z,101570.03
2023-03-24T19:17:24.651Z,101570.28
2023-03-24T19:19:58.846Z,101570.28
2023-03-24T19:22:28.077Z,101562.19
2023-03-24T19:24:57.114Z,101560.31
2023-03-24T19:27:27.971Z,101569.28
2023-03-24T19:29:57.766Z,101561.78
2023-03-24T19:32:26.935Z,101560.25
2023-03-24T19:34:56.105Z,101551.25
2023-03-24T19:37:45.610Z,101547.47
2023-03-24T19:40:16.492Z,101543.91
2023-03-24T19:42:55.198Z,101541.09
2023-03-24T19:45:28.265Z,101536.56
2023-03-24T19:47:57.427Z,101528.06
2023-03-24T19:50:26.867Z,101536.19
2023-03-24T19:52:56.089Z,101541.56
2023-03-24T19:55:25.737Z,101536.28
2023-03-24T19:57:58.204Z,101521.63
2023-03-24T20:00:27.336Z,101533.25
2023-03-24T20:03:08.203Z,101541.13
2023-03-24T20:05:37.954Z,101529.78
2023-03-24T20:08:07.091Z,101524.75
2023-03-24T20:10:37.953Z,101526.75
2023-03-24T20:13:08.167Z,101532.19
2023-03-24T20:15:38.460Z,101535.78
2023-03-24T20:18:08.214Z,101523.63
2023-03-24T20:20:37.322Z,101531.00
2023-03-24T20:23:07.384Z,101543.41
2023-03-24T20:25:36.501Z,101537.63
2023-03-24T20:28:05.775Z,101530.44
2023-03-24T20:30:34.849Z,101535.13
2023-03-24T20:33:04.230Z,101533.88
2023-03-24T20:38:02.597Z,101542.78
2023-03-24T20:40:31.707Z,101547.75
2023-03-24T20:43:00.880Z,101539.00
2023-03-24T20:45:30.142Z,101539.44
2023-03-24T20:47:59.151Z,101543.94
2023-03-24T20:50:28.446Z,101532.81
2023-03-24T20:52:57.401Z,101532.13
2023-03-24T20:55:26.840Z,101528.22
2023-03-24T20:57:56.703Z,101532.53
2023-03-24T21:00:25.854Z,101523.00
2023-03-24T21:02:54.807Z,101530.69
2023-03-24T21:05:23.834Z,101525.38
2023-03-24T21:07:53.105Z,101528.44
2023-03-24T21:10:22.221Z,101525.69
2023-03-24T21:12:53.574Z,101524.81
2023-03-24T21:15:27.128Z,101527.00
2023-03-24T21:17:56.966Z,101517.19
2023-03-24T21:20:31.529Z,101515.19
2023-03-24T21:23:05.123Z,101513.59
2023-03-24T21:25:34.601Z,101514.03
2023-03-24T21:28:04.345Z,101505.69
2023-03-24T21:30:33.342Z,101506.88
2023-03-24T21:33:02.338Z,101498.53
2023-03-24T21:35:32.150Z,101502.66
2023-03-24T21:38:02.175Z,101502.81
2023-03-24T21:40:31.447Z,101499.00
2023-03-24T21:43:05.561Z,101502.94
2023-03-24T21:45:36.729Z,101507.66
2023-03-24T21:48:07.757Z,101505.63
2023-03-24T21:50:39.646Z,101499.09
2023-03-24T21:53:15.576Z,101512.25
2023-03-24T21:55:56.415Z,101530.13
2023-03-24T21:58:25.434Z,101525.72
2023-03-24T22:00:56.484Z,101515.34
2023-03-24T22:03:26.875Z,101522.28
2023-03-24T22:05:59.925Z,101526.94
2023-03-24T22:08:34.379Z,101538.31
2023-03-24T22:11:07.793Z,101537.25
2023-03-24T22:13:46.810Z,101533.03
2023-03-24T22:16:17.063Z,101540.50
2023-03-24T22:18:48.205Z,101533.81
2023-03-24T22:21:18.108Z,101530.13
2023-03-24T22:23:50.592Z,101524.72
2023-03-24T22:26:19.831Z,101516.06
2023-03-24T22:28:49.939Z,101514.91
2023-03-24T22:31:24.339Z,101511.00
2023-03-24T22:33:57.085Z,101514.00
2023-03-24T22:36:26.266Z,101515.50
2023-03-24T22:38:55.183Z,101523.66
2023-03-24T22:41:24.242Z,101521.34
2023-03-24T22:43:53.515Z,101520.47
2023-03-24T22:46:25.004Z,101526.47
2023-03-24T22:48:54.074Z,101519.53
2023-03-24T22:51:23.160Z,101525.06
2023-03-24T22:53:52.475Z,101512.19
2023-03-24T22:56:23.397Z,101511.63
2023-03-24T22:59:20.490Z,101525.09
2023-03-24T23:02:33.999Z,101531.31
2023-03-24T23:05:07.466Z,101530.47
2023-03-24T23:07:39.299Z,101542.44
2023-03-24T23:10:09.234Z,101551.06
2023-03-24T23:12:38.965Z,101553.13
2023-03-24T23:15:09.304Z,101552.91
2023-03-24T23:17:38.845Z,101547.59
2023-03-24T23:20:09.136Z,101551.25
2023-03-24T23:22:39.761Z,101548.75
2023-03-24T23:25:14.315Z,101559.34
2023-03-24T23:27:43.564Z,101553.56
2023-03-24T23:30:23.338Z,101557.94
2023-03-24T23:33:08.637Z,101559.06
2023-03-24T23:35:38.186Z,101566.66
2023-03-24T23:38:07.499Z,101566.41
2023-03-24T23:40:36.579Z,101567.34
2023-03-24T23:43:05.546Z,101570.97
2023-03-24T23:45:34.650Z,101569.13
2023-03-24T23:48:04.427Z,101563.13
2023-03-24T23:50:33.941Z,101570.91
2023-03-24T23:53:02.909Z,101564.03
2023-03-24T23:59:24.086Z,101560.94
